createdAt,value
2019-02-20T00:01:56.086Z,96306.73
2019-02-20T00:04:27.635Z,96306.48
2019-02-20T00:06:58.906Z,96310.73
2019-02-20T00:09:30.333Z,96310.81
2019-02-20T00:12:02.084Z,96306.94
2019-02-20T00:14:33.363Z,96309.85
2019-02-20T00:17:04.618Z,96313.29
2019-02-20T00:19:38.758Z,96315.72
2019-02-20T00:22:09.877Z,96319.75
2019-02-20T00:24:41.131Z,96316.95
2019-02-20T00:27:12.379Z,96317.75
2019-02-20T00:29:44.432Z,96314.00
2019-02-20T00:32:15.454Z,96313.69
2019-02-20T00:34:46.539Z,96311.26
2019-02-20T00:37:17.750Z,96309.03
2019-02-20T00:39:48.944Z,96315.52
2019-02-20T00:42:23.411Z,96312.69
2019-02-20T00:45:12.402Z,96314.31
2019-02-20T00:47:59.291Z,96313.73
2019-02-20T00:50:31.878Z,96313.02
2019-02-20T00:53:20.465Z,96308.09
2019-02-20T00:55:54.450Z,96307.86
2019-02-20T00:58:29.905Z,96316.97
2019-02-20T01:01:00.996Z,96321.66
2019-02-20T01:03:32.190Z,96323.22
2019-02-20T01:06:05.027Z,96314.38
2019-02-20T01:08:36.366Z,96313.69
2019-02-20T01:11:07.428Z,96315.83
2019-02-20T01:13:38.521Z,96313.48
2019-02-20T01:16:09.676Z,96314.96
2019-02-20T01:18:40.709Z,96312.74
2019-02-20T01:21:11.767Z,96313.19
2019-02-20T01:23:42.904Z,96310.73
2019-02-20T01:26:13.968Z,96313.94
2019-02-20T01:28:44.994Z,96315.94
2019-02-20T01:31:16.137Z,96316.52
2019-02-20T01:33:47.308Z,96316.86
2019-02-20T01:36:18.390Z,96321.42
2019-02-20T01:38:49.561Z,96315.56
2019-02-20T01:41:20.643Z,96315.36
2019-02-20T01:43:51.799Z,96310.29
2019-02-20T01:46:22.901Z,96305.33
2019-02-20T01:48:54.089Z,96306.41
2019-02-20T01:51:25.250Z,96312.61
2019-02-20T01:53:57.437Z,96308.62
2019-02-20T01:56:28.600Z,96308.62
2019-02-20T01:59:02.145Z,96305.20
2019-02-20T02:01:32.383Z,96305.09
2019-02-20T02:04:03.731Z,96305.78
2019-02-20T02:06:34.904Z,96305.20
2019-02-20T02:09:08.460Z,96303.32
2019-02-20T02:11:41.211Z,96300.73
2019-02-20T02:14:12.447Z,96307.78
2019-02-20T02:16:43.720Z,96304.27
2019-02-20T02:19:14.835Z,96301.21
2019-02-20T02:21:46.028Z,96298.36
2019-02-20T02:24:17.600Z,96298.84
2019-02-20T02:26:48.804Z,96291.98
2019-02-20T02:29:19.987Z,96295.03
2019-02-20T02:31:51.061Z,96292.42
2019-02-20T02:34:22.186Z,96290.08
2019-02-20T02:36:56.069Z,96295.14
2019-02-20T02:39:27.496Z,96290.25
2019-02-20T02:41:58.553Z,96293.51
2019-02-20T02:44:30.139Z,96293.74
2019-02-20T02:47:01.413Z,96292.83
2019-02-20T02:49:34.408Z,96291.13
2019-02-20T02:52:05.862Z,96294.39
2019-02-20T02:54:36.878Z,96293.16
2019-02-20T02:57:07.919Z,96289.59
2019-02-20T02:59:39.531Z,96294.56
2019-02-20T03:02:10.879Z,96296.23
2019-02-20T03:04:42.094Z,96295.59
2019-02-20T03:07:14.433Z,96296.98
2019-02-20T03:09:45.520Z,96295.86
2019-02-20T03:12:18.021Z,96296.67
2019-02-20T03:14:50.586Z,96302.45
2019-02-20T03:17:21.656Z,96304.22
2019-02-20T03:19:52.659Z,96299.97
2019-02-20T03:22:23.833Z,96293.84
2019-02-20T03:24:54.933Z,96294.66
2019-02-20T03:27:26.060Z,96294.66
2019-02-20T03:29:57.077Z,96297.73
2019-02-20T03:32:28.189Z,96302.55
2019-02-20T03:34:59.391Z,96310.75
2019-02-20T03:37:30.400Z,96316.88
2019-02-20T03:40:01.508Z,96319.80
2019-02-20T03:42:32.576Z,96321.13
2019-02-20T03:45:03.782Z,96309.46
2019-02-20T03:47:35.808Z,96306.47
2019-02-20T03:50:07.008Z,96318.38
2019-02-20T03:52:38.167Z,96311.20
2019-02-20T03:55:09.443Z,96318.34
2019-02-20T03:57:40.524Z,96320.70
2019-02-20T04:00:12.928Z,96320.80
2019-02-20T04:02:44.176Z,96322.61
2019-02-20T04:05:15.266Z,96329.61
2019-02-20T04:07:46.306Z,96326.48
2019-02-20T04:10:17.343Z,96326.77
2019-02-20T04:12:48.712Z,96326.70
2019-02-20T04:15:20.157Z,96326.77
2019-02-20T04:17:51.293Z,96334.75
2019-02-20T04:20:22.326Z,96327.67
2019-02-20T04:22:53.396Z,96323.70
2019-02-20T04:25:24.402Z,96321.95
2019-02-20T04:27:55.542Z,96316.50
2019-02-20T04:30:26.616Z,96320.62
2019-02-20T04:32:58.442Z,96327.83
2019-02-20T04:35:29.678Z,96331.08
2019-02-20T04:38:00.711Z,96328.26
2019-02-20T04:40:31.893Z,96332.61
2019-02-20T04:43:02.967Z,96334.23
2019-02-20T04:45:33.987Z,96330.31
2019-02-20T04:48:05.150Z,96332.23
2019-02-20T04:50:36.231Z,96330.27
2019-02-20T04:53:07.308Z,96325.00
2019-02-20T04:55:38.425Z,96331.98
2019-02-20T04:58:27.742Z,96337.02
2019-02-20T05:00:58.824Z,96334.39
2019-02-20T05:03:29.926Z,96333.42
2019-02-20T05:06:00.955Z,96335.63
2019-02-20T05:08:32.164Z,96332.42
2019-02-20T05:11:03.395Z,96330.61
2019-02-20T05:13:34.441Z,96337.55
2019-02-20T05:16:05.565Z,96335.66
2019-02-20T05:18:36.644Z,96332.51
2019-02-20T05:21:07.693Z,96332.46
2019-02-20T05:23:38.733Z,96331.36
2019-02-20T05:26:09.806Z,96334.95
2019-02-20T05:28:40.815Z,96338.05
2019-02-20T05:31:11.837Z,96334.23
2019-02-20T05:33:44.975Z,96332.42
2019-02-20T05:36:16.148Z,96339.17
2019-02-20T05:38:47.496Z,96345.15
2019-02-20T05:41:18.656Z,96350.12
2019-02-20T05:43:51.007Z,96344.99
2019-02-20T05:46:22.088Z,96353.62
2019-02-20T05:48:53.174Z,96353.05
2019-02-20T05:51:25.906Z,96362.84
2019-02-20T05:53:57.006Z,96353.32
2019-02-20T05:56:28.114Z,96357.47
2019-02-20T05:58:59.372Z,96364.62
2019-02-20T06:01:30.545Z,96361.55
2019-02-20T06:04:01.672Z,96361.17
2019-02-20T06:06:32.664Z,96361.31
2019-02-20T06:09:05.432Z,96359.75
2019-02-20T06:11:37.357Z,96354.73
2019-02-20T06:14:08.402Z,96355.51
2019-02-20T06:16:39.498Z,96354.73
2019-02-20T06:19:10.542Z,96364.15
2019-02-20T06:21:41.666Z,96365.19
2019-02-20T06:24:12.666Z,96367.91
2019-02-20T06:26:45.169Z,96370.83
2019-02-20T06:29:16.242Z,96382.36
2019-02-20T06:31:47.267Z,96385.89
2019-02-20T06:34:18.424Z,96389.30
2019-02-20T06:36:50.806Z,96393.00
2019-02-20T06:39:21.873Z,96400.86
2019-02-20T06:41:52.928Z,96398.59
2019-02-20T06:44:23.895Z,96396.48
2019-02-20T06:46:54.921Z,96399.92
2019-02-20T06:49:25.991Z,96401.83
2019-02-20T06:51:57.009Z,96403.41
2019-02-20T06:54:29.098Z,96401.48
2019-02-20T06:57:00.180Z,96406.08
2019-02-20T06:59:31.717Z,96404.19
2019-02-20T07:02:02.838Z,96410.01
2019-02-20T07:04:33.972Z,96413.75
2019-02-20T07:07:26.838Z,96417.85
2019-02-20T07:10:48.519Z,96416.95
2019-02-20T07:13:56.503Z,96426.49
2019-02-20T07:17:04.625Z,96430.20
2019-02-20T07:20:00.280Z,96428.39
2019-02-20T07:23:19.269Z,96426.30
2019-02-20T07:26:16.936Z,96427.95
2019-02-20T07:29:26.346Z,96426.79
2019-02-20T07:31:57.368Z,96435.98
2019-02-20T07:34:28.429Z,96431.81
2019-02-20T07:36:59.445Z,96433.70
2019-02-20T07:39:30.485Z,96438.09
2019-02-20T07:42:01.619Z,96434.02
2019-02-20T07:44:32.788Z,96438.53
2019-02-20T07:47:03.964Z,96441.06
2019-02-20T07:49:35.174Z,96444.70
2019-02-20T07:52:06.314Z,96441.53
2019-02-20T07:54:37.336Z,96441.30
2019-02-20T07:57:08.395Z,96440.23
2019-02-20T07:59:39.560Z,96445.95
2019-02-20T08:02:10.601Z,96449.49
2019-02-20T08:04:41.723Z,96452.80
2019-02-20T08:07:12.896Z,96455.38
2019-02-20T08:09:44.011Z,96454.05
2019-02-20T08:12:15.014Z,96450.73
2019-02-20T08:14:46.056Z,96447.91
2019-02-20T08:17:17.164Z,96454.32
2019-02-20T08:19:48.275Z,96466.67
2019-02-20T08:22:19.376Z,96463.47
2019-02-20T08:24:50.537Z,96465.05
2019-02-20T08:27:21.605Z,96464.36
2019-02-20T08:29:52.685Z,96464.44
2019-02-20T08:32:23.784Z,96461.78
2019-02-20T08:34:54.964Z,96463.42
2019-02-20T08:37:26.068Z,96458.44
2019-02-20T08:39:57.182Z,96458.73
2019-02-20T08:42:28.244Z,96456.27
2019-02-20T08:44:59.353Z,96453.81
2019-02-20T08:47:30.442Z,96453.70
2019-02-20T08:50:01.527Z,96452.18
2019-02-20T08:52:33.765Z,96452.42
2019-02-20T08:55:05.853Z,96456.42
2019-02-20T08:57:36.920Z,96454.89
2019-02-20T09:00:10.734Z,96464.75
2019-02-20T09:02:42.172Z,96466.63
2019-02-20T09:05:13.349Z,96478.33
2019-02-20T09:07:44.456Z,96476.52
2019-02-20T09:10:17.417Z,96481.59
2019-02-20T09:12:48.429Z,96483.62
2019-02-20T09:15:19.598Z,96482.70
2019-02-20T09:17:50.706Z,96481.89
2019-02-20T09:20:22.009Z,96483.66
2019-02-20T09:22:53.428Z,96484.23
2019-02-20T09:25:24.872Z,96492.36
2019-02-20T09:27:55.874Z,96487.53
2019-02-20T09:30:28.885Z,96491.53
2019-02-20T09:32:59.647Z,96494.03
2019-02-20T09:35:30.666Z,96494.98
2019-02-20T09:38:01.746Z,96492.64
2019-02-20T09:40:32.843Z,96493.68
2019-02-20T09:43:04.013Z,96495.69
2019-02-20T09:45:41.650Z,96500.50
2019-02-20T09:48:08.062Z,96500.39
2019-02-20T09:50:39.182Z,96505.69
2019-02-20T09:53:10.205Z,96502.03
2019-02-20T09:55:50.882Z,96504.40
2019-02-20T09:58:14.226Z,96494.86
2019-02-20T10:00:45.361Z,96494.02
2019-02-20T10:03:16.420Z,96495.64
2019-02-20T10:05:47.573Z,96493.87
2019-02-20T10:08:18.720Z,96498.68
2019-02-20T10:10:49.776Z,96496.89
2019-02-20T10:13:20.832Z,96500.59
2019-02-20T10:15:51.934Z,96501.51
2019-02-20T10:18:22.984Z,96506.82
2019-02-20T10:20:54.286Z,96503.39
2019-02-20T10:23:25.388Z,96503.23
2019-02-20T10:26:00.907Z,96505.69
2019-02-20T10:28:29.325Z,96501.84
2019-02-20T10:31:00.352Z,96502.91
2019-02-20T10:33:31.522Z,96498.42
2019-02-20T10:36:02.632Z,96502.89
2019-02-20T10:38:33.705Z,96506.31
2019-02-20T10:41:04.879Z,96500.91
2019-02-20T10:43:37.115Z,96499.00
2019-02-20T10:46:08.309Z,96498.52
2019-02-20T10:48:39.494Z,96496.16
2019-02-20T10:51:10.516Z,96496.73
2019-02-20T10:53:42.672Z,96496.34
2019-02-20T10:56:13.807Z,96500.83
2019-02-20T10:58:44.827Z,96494.40
2019-02-20T11:01:15.930Z,96500.48
2019-02-20T11:03:46.946Z,96495.84
2019-02-20T11:06:18.025Z,96498.92
2019-02-20T11:08:50.441Z,96498.55
2019-02-20T11:11:21.692Z,96497.23
2019-02-20T11:13:52.868Z,96501.57
2019-02-20T11:16:24.012Z,96494.53
2019-02-20T11:18:55.132Z,96503.03
2019-02-20T11:21:26.328Z,96507.89
2019-02-20T11:23:57.449Z,96515.45
2019-02-20T11:26:28.480Z,96506.13
2019-02-20T11:29:01.981Z,96507.06
2019-02-20T11:31:33.165Z,96509.55
2019-02-20T11:34:04.643Z,96514.95
2019-02-20T11:36:35.680Z,96517.45
2019-02-20T11:39:07.330Z,96505.27
2019-02-20T11:41:38.594Z,96504.77
2019-02-20T11:44:09.735Z,96504.13
2019-02-20T11:46:40.857Z,96500.48
2019-02-20T11:49:11.879Z,96506.29
2019-02-20T11:51:42.922Z,96507.54
2019-02-20T11:54:13.950Z,96510.51
2019-02-20T11:56:45.090Z,96510.39
2019-02-20T11:59:16.212Z,96506.08
2019-02-20T12:01:47.373Z,96509.41
2019-02-20T12:04:18.435Z,96506.33
2019-02-20T12:06:50.590Z,96509.53
2019-02-20T12:09:21.669Z,96512.22
2019-02-20T12:11:54.026Z,96507.50
2019-02-20T12:14:25.220Z,96514.35
2019-02-20T12:16:57.548Z,96513.75
2019-02-20T12:19:28.620Z,96516.25
2019-02-20T12:21:59.691Z,96512.23
2019-02-20T12:24:30.890Z,96517.51
2019-02-20T12:27:02.295Z,96512.62
2019-02-20T12:29:33.369Z,96518.23
2019-02-20T12:32:04.604Z,96517.35
2019-02-20T12:34:35.902Z,96516.34
2019-02-20T12:37:07.786Z,96516.90
2019-02-20T12:39:43.123Z,96520.90
2019-02-20T12:42:14.231Z,96519.81
2019-02-20T12:44:45.234Z,96520.03
2019-02-20T12:47:16.404Z,96514.73
2019-02-20T12:49:47.487Z,96509.61
2019-02-20T12:52:18.586Z,96510.19
2019-02-20T12:54:49.613Z,96512.55
2019-02-20T12:57:22.175Z,96510.80
2019-02-20T12:59:53.365Z,96512.76
2019-02-20T13:02:24.465Z,96510.96
2019-02-20T13:04:55.638Z,96507.40
2019-02-20T13:07:26.869Z,96499.25
2019-02-20T13:09:57.946Z,96496.78
2019-02-20T13:12:30.480Z,96501.11
2019-02-20T13:15:02.677Z,96500.11
2019-02-20T13:17:33.976Z,96496.67
2019-02-20T13:20:05.245Z,96495.30
2019-02-20T13:22:36.467Z,96495.16
2019-02-20T13:25:07.874Z,96496.64
2019-02-20T13:27:40.270Z,96493.81
2019-02-20T13:30:11.787Z,96499.44
2019-02-20T13:32:42.993Z,96491.88
2019-02-20T13:35:14.777Z,96495.57
2019-02-20T13:37:46.063Z,96492.70
2019-02-20T13:40:17.165Z,96492.89
2019-02-20T13:42:48.273Z,96490.81
2019-02-20T13:45:19.397Z,96493.64
2019-02-20T13:47:50.803Z,96494.20
2019-02-20T13:50:21.978Z,96487.33
2019-02-20T13:52:53.191Z,96488.14
2019-02-20T13:55:24.394Z,96490.81
2019-02-20T13:57:55.589Z,96492.59
2019-02-20T14:00:26.736Z,96487.80
2019-02-20T14:02:57.789Z,96491.86
2019-02-20T14:05:28.915Z,96492.70
2019-02-20T14:07:59.962Z,96488.94
2019-02-20T14:10:31.034Z,96492.95
2019-02-20T14:13:02.095Z,96468.68
2019-02-20T14:15:33.189Z,96490.33
2019-02-20T14:18:04.781Z,96483.92
2019-02-20T14:20:36.043Z,96494.11
2019-02-20T14:23:07.339Z,96495.44
2019-02-20T14:25:38.506Z,96494.19
2019-02-20T14:28:09.727Z,96495.41
2019-02-20T14:30:40.930Z,96495.37
2019-02-20T14:33:12.066Z,96498.81
2019-02-20T14:35:43.103Z,96493.84
2019-02-20T14:38:14.317Z,96493.75
2019-02-20T14:40:45.494Z,96494.75
2019-02-20T14:43:16.611Z,96486.16
2019-02-20T14:45:47.828Z,96484.56
2019-02-20T14:48:19.080Z,96482.67
2019-02-20T14:50:50.192Z,96479.84
2019-02-20T14:53:21.241Z,96474.04
2019-02-20T14:55:52.317Z,96476.48
2019-02-20T14:58:23.854Z,96477.28
2019-02-20T15:00:54.959Z,96472.47
2019-02-20T15:03:26.163Z,96481.36
2019-02-20T15:05:57.179Z,96474.16
2019-02-20T15:08:28.384Z,96474.43
2019-02-20T15:10:59.377Z,96475.47
2019-02-20T15:13:30.658Z,96477.77
2019-02-20T15:16:01.744Z,96468.95
2019-02-20T15:18:32.785Z,96472.94
2019-02-20T15:21:03.911Z,96473.14
2019-02-20T15:23:34.977Z,96474.09
2019-02-20T15:26:06.457Z,96469.89
2019-02-20T15:28:37.522Z,96468.11
2019-02-20T15:31:08.622Z,96465.06
2019-02-20T15:33:41.232Z,96467.11
2019-02-20T15:36:12.388Z,96465.22
2019-02-20T15:38:43.792Z,96466.23
2019-02-20T15:41:14.947Z,96464.09
2019-02-20T15:43:46.336Z,96466.58
2019-02-20T15:46:17.368Z,96471.05
2019-02-20T15:48:48.487Z,96477.00
2019-02-20T15:51:19.650Z,96464.95
2019-02-20T15:53:50.852Z,96471.16
2019-02-20T15:56:22.000Z,96472.03
2019-02-20T15:58:53.256Z,96469.70
2019-02-20T16:01:24.465Z,96479.22
2019-02-20T16:03:55.638Z,96486.86
2019-02-20T16:06:27.083Z,96478.77
2019-02-20T16:08:58.199Z,96482.47
2019-02-20T16:11:29.229Z,96490.82
2019-02-20T16:14:00.284Z,96492.52
2019-02-20T16:16:31.459Z,96483.66
2019-02-20T16:19:02.623Z,96491.74
2019-02-20T16:21:33.821Z,96493.16
2019-02-20T16:24:04.983Z,96496.27
2019-02-20T16:26:36.263Z,96494.37
2019-02-20T16:29:07.296Z,96493.30
2019-02-20T16:31:38.386Z,96495.20
2019-02-20T16:34:09.807Z,96497.27
2019-02-20T16:36:40.908Z,96504.22
2019-02-20T16:39:12.468Z,96507.54
2019-02-20T16:41:43.637Z,96506.95
2019-02-20T16:44:14.769Z,96504.79
2019-02-20T16:46:48.308Z,96503.78
2019-02-20T16:49:19.320Z,96502.28
2019-02-20T16:51:51.519Z,96502.34
2019-02-20T16:54:22.609Z,96509.61
2019-02-20T16:56:53.680Z,96509.48
2019-02-20T16:59:25.797Z,96513.39
2019-02-20T17:01:56.991Z,96519.70
2019-02-20T17:04:28.191Z,96523.49
2019-02-20T17:06:59.269Z,96522.19
2019-02-20T17:09:30.378Z,96528.20
2019-02-20T17:12:01.840Z,96533.17
2019-02-20T17:14:33.016Z,96540.14
2019-02-20T17:17:04.189Z,96537.28
2019-02-20T17:19:35.221Z,96547.91
2019-02-20T17:22:06.466Z,96544.05
2019-02-20T17:24:37.658Z,96543.83
2019-02-20T17:27:09.084Z,96548.16
2019-02-20T17:29:40.207Z,96542.41
2019-02-20T17:32:11.294Z,96543.06
2019-02-20T17:34:42.376Z,96550.02
2019-02-20T17:37:13.466Z,96546.70
2019-02-20T17:39:45.055Z,96549.44
2019-02-20T17:42:16.138Z,96556.37
2019-02-20T17:44:47.182Z,96554.78
2019-02-20T17:47:18.367Z,96555.60
2019-02-20T17:49:49.512Z,96555.56
2019-02-20T17:52:21.257Z,96559.91
2019-02-20T17:54:52.284Z,96558.97
2019-02-20T17:57:23.394Z,96563.73
2019-02-20T17:59:54.588Z,96560.30
2019-02-20T18:02:25.746Z,96569.61
2019-02-20T18:04:56.842Z,96564.08
2019-02-20T18:07:27.963Z,96570.58
2019-02-20T18:09:59.036Z,96565.39
2019-02-20T18:12:30.052Z,96567.31
2019-02-20T18:15:02.588Z,96565.19
2019-02-20T18:17:33.824Z,96576.02
2019-02-20T18:20:05.266Z,96574.38
2019-02-20T18:22:36.363Z,96578.48
2019-02-20T18:25:09.737Z,96580.66
2019-02-20T18:27:40.343Z,96575.92
2019-02-20T18:30:12.016Z,96577.14
2019-02-20T18:32:44.350Z,96583.95
2019-02-20T18:35:16.344Z,96581.71
2019-02-20T18:37:47.504Z,96583.11
2019-02-20T18:40:19.660Z,96587.40
2019-02-20T18:42:50.764Z,96592.10
2019-02-20T18:45:22.464Z,96589.38
2019-02-20T18:47:53.502Z,96589.62
2019-02-20T18:50:24.710Z,96592.15
2019-02-20T18:52:55.908Z,96604.95
2019-02-20T18:55:26.921Z,96606.77
2019-02-20T18:57:59.808Z,96610.73
2019-02-20T19:00:32.284Z,96612.38
2019-02-20T19:03:03.523Z,96620.48
2019-02-20T19:05:34.761Z,96611.89
2019-02-20T19:08:32.199Z,96614.81
2019-02-20T19:11:06.721Z,96617.75
2019-02-20T19:14:16.986Z,96613.25
2019-02-20T19:17:43.683Z,96617.75
2019-02-20T19:20:58.797Z,96621.00
2019-02-20T19:24:13.613Z,96622.06
2019-02-20T19:27:07.454Z,96622.59
2019-02-20T19:30:33.151Z,96625.17
2019-02-20T19:33:15.690Z,96633.47
2019-02-20T19:36:29.650Z,96635.48
2019-02-20T19:39:21.179Z,96639.70
2019-02-20T19:42:33.645Z,96643.62
2019-02-20T19:45:38.939Z,96647.46
2019-02-20T19:49:12.332Z,96645.60
2019-02-20T19:52:01.595Z,96649.90
2019-02-20T19:55:15.118Z,96651.25
2019-02-20T19:58:00.186Z,96651.37
2019-02-20T20:01:20.594Z,96655.31
2019-02-20T20:04:16.430Z,96648.78
2019-02-20T20:07:19.666Z,96652.66
2019-02-20T20:10:05.484Z,96649.67
2019-02-20T20:13:17.626Z,96650.21
2019-02-20T20:16:20.337Z,96647.64
2019-02-20T20:19:29.871Z,96648.83
2019-02-20T20:22:32.925Z,96658.03
2019-02-20T20:25:19.848Z,96656.36
2019-02-20T20:28:24.261Z,96660.41
2019-02-20T20:31:32.739Z,96656.73
2019-02-20T20:34:31.844Z,96658.12
2019-02-20T20:37:30.187Z,96663.91
2019-02-20T20:40:44.175Z,96667.73
2019-02-20T20:43:45.157Z,96670.13
2019-02-20T20:46:50.038Z,96664.09
2019-02-20T20:50:04.914Z,96668.81
2019-02-20T20:53:03.436Z,96670.06
2019-02-20T20:56:09.623Z,96667.91
2019-02-20T20:59:03.006Z,96668.78
2019-02-20T21:02:17.261Z,96669.59
2019-02-20T21:05:37.314Z,96669.80
2019-02-20T21:08:29.022Z,96668.50
2019-02-20T21:11:55.211Z,96670.53
2019-02-20T21:14:42.273Z,96675.08
2019-02-20T21:17:57.407Z,96667.63
2019-02-20T21:20:54.425Z,96671.59
2019-02-20T21:24:01.978Z,96672.24
2019-02-20T21:27:01.815Z,96666.17
2019-02-20T21:29:53.429Z,96668.84
2019-02-20T21:32:42.764Z,96669.36
2019-02-20T21:35:24.696Z,96660.64
2019-02-20T21:38:16.152Z,96662.08
2019-02-20T21:41:34.146Z,96664.41
2019-02-20T21:44:20.764Z,96671.59
2019-02-20T21:47:45.473Z,96677.77
2019-02-20T21:50:56.560Z,96679.70
2019-02-20T21:53:59.256Z,96675.19
2019-02-20T21:56:54.169Z,96669.59
2019-02-20T21:59:41.645Z,96671.91
2019-02-20T22:02:42.304Z,96675.05
2019-02-20T22:06:00.722Z,96674.31
2019-02-20T22:08:48.578Z,96677.80
2019-02-20T22:11:38.541Z,96683.00
2019-02-20T22:14:34.820Z,96685.28
2019-02-20T22:18:02.087Z,96687.16
2019-02-20T22:20:53.680Z,96686.78
2019-02-20T22:23:50.441Z,96692.05
2019-02-20T22:26:30.369Z,96693.08
2019-02-20T22:29:18.709Z,96692.04
2019-02-20T22:32:20.043Z,96696.36
2019-02-20T22:35:22.542Z,96696.19
2019-02-20T22:38:29.383Z,96702.41
2019-02-20T22:41:29.132Z,96698.34
2019-02-20T22:44:36.558Z,96707.28
2019-02-20T22:47:30.431Z,96700.59
2019-02-20T22:50:41.168Z,96705.31
2019-02-20T22:53:52.191Z,96705.38
2019-02-20T22:56:42.760Z,96696.19
2019-02-20T23:00:10.723Z,96701.70
2019-02-20T23:03:20.487Z,96698.39
2019-02-20T23:06:12.816Z,96709.63
2019-02-20T23:09:14.265Z,96704.17
2019-02-20T23:12:07.090Z,96704.58
2019-02-20T23:14:56.501Z,96699.80
2019-02-20T23:17:27.841Z,96693.31
2019-02-20T23:19:59.211Z,96698.36
2019-02-20T23:22:30.360Z,96697.30
2019-02-20T23:25:01.525Z,96692.24
2019-02-20T23:27:32.622Z,96694.44
2019-02-20T23:30:12.512Z,96696.78
2019-02-20T23:32:37.023Z,96691.32
2019-02-20T23:35:08.593Z,96693.35
2019-02-20T23:37:39.610Z,96690.12
2019-02-20T23:40:10.942Z,96693.30
2019-02-20T23:42:42.022Z,96692.02
2019-02-20T23:45:13.258Z,96687.95
2019-02-20T23:47:44.365Z,96698.56
2019-02-20T23:50:15.519Z,96696.43
2019-02-20T23:52:46.603Z,96700.03
2019-02-20T23:55:17.777Z,96700.74
2019-02-20T23:57:48.931Z,96697.63
